createdAt,value
2024-01-18T00:00:19.086Z,15.00
2024-01-18T00:02:45.830Z,16.67
2024-01-18T00:05:12.943Z,17.08
2024-01-18T00:07:39.964Z,19.30
2024-01-18T00:10:07.872Z,16.90
2024-01-18T00:12:36.970Z,19.35
2024-01-18T00:15:04.504Z,17.55
2024-01-18T00:17:31.358Z,17.30
2024-01-18T00:19:58.180Z,18.52
2024-01-18T00:22:25.006Z,19.40
2024-01-18T00:24:52.080Z,19.40
2024-01-18T00:27:19.058Z,20.90
2024-01-18T00:29:45.761Z,22.23
2024-01-18T00:32:12.714Z,23.58
2024-01-18T00:34:39.620Z,22.98
2024-01-18T00:37:06.316Z,20.38
2024-01-18T00:39:33.247Z,24.80
2024-01-18T00:42:00.160Z,21.73
2024-01-18T00:44:26.950Z,20.92
2024-01-18T00:46:53.910Z,20.08
2024-01-18T00:49:20.743Z,20.70
2024-01-18T00:51:47.532Z,21.85
2024-01-18T00:54:14.308Z,22.75
2024-01-18T00:56:41.128Z,18.60
2024-01-18T00:59:08.990Z,20.50
2024-01-18T01:01:35.840Z,20.52
2024-01-18T01:04:03.331Z,19.67
2024-01-18T01:06:30.094Z,20.33
2024-01-18T01:08:56.962Z,19.73
2024-01-18T01:11:23.731Z,20.38
2024-01-18T01:13:50.429Z,19.15
2024-01-18T01:16:17.509Z,18.55
2024-01-18T01:18:44.359Z,19.35
2024-01-18T01:21:11.279Z,20.33
2024-01-18T01:23:43.246Z,19.05
2024-01-18T01:26:10.112Z,17.35
2024-01-18T01:28:37.073Z,18.75
2024-01-18T01:31:04.107Z,15.82
2024-01-18T01:33:30.948Z,17.13
2024-01-18T01:35:58.402Z,19.58
2024-01-18T01:38:25.272Z,18.15
2024-01-18T01:40:52.002Z,16.88
2024-01-18T01:43:18.828Z,17.08
2024-01-18T01:45:46.049Z,19.95
2024-01-18T01:48:13.538Z,18.33
2024-01-18T01:50:40.792Z,18.30
2024-01-18T01:53:09.242Z,18.10
2024-01-18T01:55:36.940Z,17.05
2024-01-18T01:58:04.183Z,19.05
2024-01-18T02:00:31.078Z,18.13
2024-01-18T02:02:58.204Z,19.17
2024-01-18T02:05:26.442Z,16.95
2024-01-18T02:07:53.680Z,16.05
2024-01-18T02:10:20.475Z,16.83
2024-01-18T02:12:47.424Z,16.60
2024-01-18T02:15:14.523Z,14.27
2024-01-18T02:17:41.350Z,15.00
2024-01-18T02:20:09.218Z,15.95
2024-01-18T02:22:42.229Z,15.88
2024-01-18T02:25:20.397Z,16.40
2024-01-18T02:27:47.315Z,15.65
2024-01-18T02:30:14.397Z,14.25
2024-01-18T02:32:41.251Z,15.65
2024-01-18T02:35:08.408Z,17.92
2024-01-18T02:37:35.405Z,16.27
2024-01-18T02:40:02.541Z,17.45
2024-01-18T02:42:29.350Z,15.05
2024-01-18T02:44:58.048Z,18.27
2024-01-18T02:47:28.442Z,17.77
2024-01-18T02:49:57.285Z,17.48
2024-01-18T02:52:24.216Z,18.08
2024-01-18T02:54:50.902Z,15.73
2024-01-18T02:57:17.734Z,17.60
2024-01-18T02:59:44.520Z,19.02
2024-01-18T03:02:11.377Z,26.48
2024-01-18T03:04:38.246Z,17.67
2024-01-18T03:07:05.617Z,16.98
2024-01-18T03:09:32.458Z,18.02
2024-01-18T03:11:59.280Z,16.67
2024-01-18T03:14:26.028Z,17.13
2024-01-18T03:16:52.815Z,18.33
2024-01-18T03:19:19.691Z,17.77
2024-01-18T03:21:46.463Z,21.05
2024-01-18T03:24:13.204Z,23.23
2024-01-18T03:26:39.988Z,20.48
2024-01-18T03:29:06.842Z,17.25
2024-01-18T03:31:33.560Z,18.73
2024-01-18T03:34:00.401Z,16.58
2024-01-18T03:36:27.466Z,21.60
2024-01-18T03:38:54.187Z,17.88
2024-01-18T03:41:20.932Z,18.60
2024-01-18T03:43:47.762Z,19.75
2024-01-18T03:46:17.624Z,19.75
2024-01-18T03:48:44.420Z,16.88
2024-01-18T03:51:11.404Z,19.48
2024-01-18T03:53:43.511Z,18.70
2024-01-18T03:56:12.312Z,17.77
2024-01-18T03:58:41.599Z,16.35
2024-01-18T04:01:08.345Z,15.63
2024-01-18T04:03:35.157Z,16.08
2024-01-18T04:06:02.388Z,19.40
2024-01-18T04:08:29.375Z,20.17
2024-01-18T04:10:56.434Z,19.38
2024-01-18T04:13:23.117Z,16.40
2024-01-18T04:15:49.944Z,17.63
2024-01-18T04:18:16.908Z,18.52
2024-01-18T04:20:43.814Z,17.52
2024-01-18T04:23:10.684Z,18.08
2024-01-18T04:25:37.706Z,18.23
2024-01-18T04:28:04.961Z,19.20
2024-01-18T04:30:32.114Z,19.80
2024-01-18T04:32:59.103Z,18.73
2024-01-18T04:35:26.011Z,21.23
2024-01-18T04:37:52.725Z,21.05
2024-01-18T04:40:19.868Z,18.65
2024-01-18T04:42:46.995Z,19.23
2024-01-18T04:45:14.006Z,17.52
2024-01-18T04:47:40.873Z,18.65
2024-01-18T04:50:09.600Z,19.33
2024-01-18T04:52:36.504Z,19.83
2024-01-18T04:55:06.500Z,23.25
2024-01-18T04:57:34.106Z,23.27
2024-01-18T05:00:00.998Z,20.67
2024-01-18T05:02:28.054Z,20.10
2024-01-18T05:04:54.893Z,19.70
2024-01-18T05:07:21.741Z,19.58
2024-01-18T05:09:48.547Z,24.98
2024-01-18T05:12:15.372Z,20.10
2024-01-18T05:14:42.218Z,22.15
2024-01-18T05:17:12.607Z,22.88
2024-01-18T05:19:39.679Z,21.48
2024-01-18T05:22:06.561Z,20.48
2024-01-18T05:24:34.054Z,20.38
2024-01-18T05:27:00.985Z,18.23
2024-01-18T05:29:27.736Z,20.35
2024-01-18T05:31:54.461Z,19.83
2024-01-18T05:34:21.315Z,22.52
2024-01-18T05:36:49.717Z,21.10
2024-01-18T05:39:16.652Z,21.13
2024-01-18T05:41:43.398Z,20.27
2024-01-18T05:44:11.130Z,20.67
2024-01-18T05:46:39.414Z,21.73
2024-01-18T05:49:06.396Z,22.30
2024-01-18T05:51:33.380Z,19.73
2024-01-18T05:54:00.277Z,19.73
2024-01-18T05:56:27.640Z,22.63
2024-01-18T05:58:54.419Z,23.35
2024-01-18T06:01:23.001Z,21.38
2024-01-18T06:03:50.009Z,20.67
2024-01-18T06:06:17.541Z,21.10
2024-01-18T06:08:44.328Z,21.45
2024-01-18T06:11:11.390Z,23.95
2024-01-18T06:13:41.168Z,21.17
2024-01-18T06:16:12.718Z,20.83
2024-01-18T06:18:39.734Z,19.30
2024-01-18T06:21:09.171Z,20.85
2024-01-18T06:23:36.850Z,21.30
2024-01-18T06:26:04.286Z,23.77
2024-01-18T06:28:30.952Z,21.77
2024-01-18T06:30:58.433Z,23.48
2024-01-18T06:33:25.596Z,20.63
2024-01-18T06:35:52.396Z,22.58
2024-01-18T06:38:21.584Z,24.40
2024-01-18T06:40:49.164Z,26.00
2024-01-18T06:43:16.603Z,22.08
2024-01-18T06:45:44.054Z,20.55
2024-01-18T06:48:14.822Z,19.30
2024-01-18T06:50:41.640Z,21.40
2024-01-18T06:53:08.379Z,19.65
2024-01-18T06:55:35.067Z,21.80
2024-01-18T06:58:03.890Z,23.85
2024-01-18T07:00:32.264Z,24.13
2024-01-18T07:02:59.312Z,22.30
2024-01-18T07:05:26.288Z,20.90
2024-01-18T07:07:53.202Z,19.17
2024-01-18T07:10:20.022Z,19.85
2024-01-18T07:12:47.179Z,18.90
2024-01-18T07:15:14.600Z,20.92
2024-01-18T07:17:41.402Z,24.35
2024-01-18T07:20:09.172Z,25.77
2024-01-18T07:22:35.998Z,30.58
2024-01-18T07:25:10.343Z,23.35
2024-01-18T07:27:37.441Z,24.10
2024-01-18T07:30:05.639Z,22.60
2024-01-18T07:32:32.395Z,20.60
2024-01-18T07:34:59.113Z,30.77
2024-01-18T07:37:26.010Z,24.38
2024-01-18T07:39:53.222Z,24.63
2024-01-18T07:42:20.081Z,20.83
2024-01-18T07:44:47.632Z,22.40
2024-01-18T07:47:15.189Z,27.33
2024-01-18T07:49:49.901Z,19.45
2024-01-18T07:52:18.931Z,21.23
2024-01-18T07:54:45.792Z,24.98
2024-01-18T07:57:12.750Z,20.52
2024-01-18T07:59:39.676Z,23.55
2024-01-18T08:02:06.816Z,21.38
2024-01-18T08:04:33.675Z,20.48
2024-01-18T08:07:00.827Z,25.70
2024-01-18T08:09:28.153Z,25.30
2024-01-18T08:11:55.052Z,26.17
2024-01-18T08:14:21.824Z,24.65
2024-01-18T08:16:50.087Z,25.42
2024-01-18T08:19:16.969Z,27.52
2024-01-18T08:21:46.868Z,21.35
2024-01-18T08:24:13.651Z,25.10
2024-01-18T08:26:42.384Z,23.83
2024-01-18T08:29:09.368Z,25.80
2024-01-18T08:31:36.297Z,23.45
2024-01-18T08:34:04.051Z,27.00
2024-01-18T08:36:31.087Z,27.88
2024-01-18T08:38:57.926Z,24.10
2024-01-18T08:41:24.678Z,27.27
2024-01-18T08:43:51.442Z,26.95
2024-01-18T08:46:18.261Z,30.13
2024-01-18T08:48:45.089Z,28.83
2024-01-18T08:51:15.032Z,26.40
2024-01-18T08:53:42.357Z,26.20
2024-01-18T08:56:09.184Z,36.03
2024-01-18T08:58:38.471Z,36.00
2024-01-18T09:01:05.484Z,33.60
2024-01-18T09:03:35.092Z,33.55
2024-01-18T09:06:01.791Z,31.08
2024-01-18T09:08:28.775Z,30.02
2024-01-18T09:10:55.898Z,27.88
2024-01-18T09:13:23.477Z,29.85
2024-01-18T09:15:52.784Z,27.83
2024-01-18T09:18:19.830Z,26.58
2024-01-18T09:20:47.032Z,29.42
2024-01-18T09:23:14.030Z,24.98
2024-01-18T09:25:43.232Z,30.95
2024-01-18T09:28:10.822Z,27.63
2024-01-18T09:30:41.185Z,28.45
2024-01-18T09:33:10.111Z,32.17
2024-01-18T09:35:38.249Z,33.67
2024-01-18T09:38:05.208Z,32.50
2024-01-18T09:40:32.081Z,32.70
2024-01-18T09:43:00.129Z,36.00
2024-01-18T09:45:28.921Z,33.95
2024-01-18T09:47:55.727Z,30.48
2024-01-18T09:50:22.933Z,34.45
2024-01-18T09:52:51.197Z,29.02
2024-01-18T09:55:18.008Z,32.20
2024-01-18T09:57:49.124Z,27.20
2024-01-18T10:00:17.000Z,26.23
2024-01-18T10:02:45.576Z,26.13
2024-01-18T10:05:15.547Z,29.55
2024-01-18T10:07:43.545Z,28.35
2024-01-18T10:10:14.105Z,25.45
2024-01-18T10:12:44.351Z,27.77
2024-01-18T10:15:11.225Z,28.92
2024-01-18T10:17:39.040Z,27.58
2024-01-18T10:20:15.800Z,31.73
2024-01-18T10:22:43.415Z,28.92
2024-01-18T10:25:14.688Z,29.15
2024-01-18T10:27:43.527Z,28.50
2024-01-18T10:30:12.557Z,26.92
2024-01-18T10:32:40.968Z,22.05
2024-01-18T10:35:09.493Z,23.55
2024-01-18T10:37:36.535Z,24.05
2024-01-18T10:40:04.306Z,25.08
2024-01-18T10:42:31.113Z,21.98
2024-01-18T10:44:57.874Z,22.77
2024-01-18T10:47:25.433Z,23.30
2024-01-18T10:49:55.085Z,23.05
2024-01-18T10:52:22.764Z,28.00
2024-01-18T10:54:54.501Z,22.30
2024-01-18T10:57:24.609Z,24.98
2024-01-18T10:59:54.849Z,27.70
2024-01-18T11:02:21.872Z,23.98
2024-01-18T11:04:50.627Z,23.33
2024-01-18T11:07:19.084Z,30.52
2024-01-18T11:09:47.146Z,26.02
2024-01-18T11:12:15.176Z,28.42
2024-01-18T11:14:43.084Z,28.20
2024-01-18T11:17:16.250Z,26.27
2024-01-18T11:19:44.576Z,23.93
2024-01-18T11:22:24.681Z,21.52
2024-01-18T11:24:51.548Z,25.23
2024-01-18T11:27:19.754Z,24.33
2024-01-18T11:29:49.342Z,22.10
2024-01-18T11:32:17.065Z,22.55
2024-01-18T11:34:44.224Z,22.25
2024-01-18T11:37:15.435Z,20.70
2024-01-18T11:39:58.951Z,21.80
2024-01-18T11:42:28.066Z,20.00
2024-01-18T11:44:56.033Z,22.63
2024-01-18T11:47:31.011Z,24.52
2024-01-18T11:49:58.671Z,24.83
2024-01-18T11:52:27.193Z,27.33
2024-01-18T11:54:57.723Z,27.98
2024-01-18T11:57:25.267Z,21.85
2024-01-18T11:59:53.455Z,24.10
2024-01-18T12:02:20.682Z,25.35
2024-01-18T12:04:50.738Z,23.42
2024-01-18T12:07:20.823Z,25.30
2024-01-18T12:09:48.307Z,25.30
2024-01-18T12:12:15.661Z,25.05
2024-01-18T12:14:43.686Z,28.95
2024-01-18T12:17:13.023Z,24.98
2024-01-18T12:19:41.930Z,32.72
2024-01-18T12:22:10.500Z,28.02
2024-01-18T12:24:38.581Z,26.52
2024-01-18T12:27:06.473Z,29.42
2024-01-18T12:29:34.347Z,30.98
2024-01-18T12:32:02.167Z,28.63
2024-01-18T12:34:30.216Z,27.98
2024-01-18T12:36:58.042Z,27.55
2024-01-18T12:39:25.271Z,25.65
2024-01-18T12:41:54.092Z,34.80
2024-01-18T12:44:21.712Z,25.67
2024-01-18T12:46:49.441Z,26.77
2024-01-18T12:49:19.987Z,26.85
2024-01-18T12:51:58.621Z,25.48
2024-01-18T12:54:26.525Z,25.73
2024-01-18T12:57:06.048Z,25.52
2024-01-18T12:59:33.690Z,25.55
2024-01-18T13:02:01.483Z,25.17
2024-01-18T13:04:29.825Z,24.88
2024-01-18T13:07:02.655Z,28.77
2024-01-18T13:09:31.774Z,27.05
2024-01-18T13:12:01.972Z,24.48
2024-01-18T13:14:31.724Z,28.42
2024-01-18T13:16:59.061Z,26.42
2024-01-18T13:19:26.319Z,25.92
2024-01-18T13:21:54.779Z,23.85
2024-01-18T13:24:22.661Z,23.65
2024-01-18T13:26:50.024Z,24.58
2024-01-18T13:29:19.780Z,23.45
2024-01-18T13:31:46.850Z,25.20
2024-01-18T13:34:14.073Z,22.75
2024-01-18T13:36:40.988Z,23.00
2024-01-18T13:39:09.999Z,21.08
2024-01-18T13:41:37.613Z,19.27
2024-01-18T13:44:05.416Z,16.55
2024-01-18T13:46:33.259Z,20.42
2024-01-18T13:49:01.017Z,17.38
2024-01-18T13:51:28.339Z,17.10
2024-01-18T13:53:55.188Z,17.77
2024-01-18T13:56:23.916Z,16.00
2024-01-18T13:58:52.827Z,20.00
2024-01-18T14:01:20.020Z,18.92
2024-01-18T14:03:49.332Z,14.23
2024-01-18T14:06:17.939Z,16.70
2024-01-18T14:08:49.124Z,16.85
2024-01-18T14:11:16.784Z,20.45
2024-01-18T14:13:44.439Z,19.30
2024-01-18T14:16:15.130Z,20.65
2024-01-18T14:18:42.434Z,37.47
2024-01-18T14:21:09.695Z,30.23
2024-01-18T14:23:36.844Z,77.40
2024-01-18T14:26:05.469Z,41.42
2024-01-18T14:28:33.582Z,36.30
2024-01-18T14:31:02.433Z,21.38
2024-01-18T14:33:33.384Z,18.10
2024-01-18T14:36:01.132Z,19.40
2024-01-18T14:38:28.332Z,21.08
2024-01-18T14:40:55.816Z,23.98
2024-01-18T14:43:23.965Z,22.75
2024-01-18T14:45:51.049Z,21.10
2024-01-18T14:48:18.957Z,24.08
2024-01-18T14:50:49.743Z,21.75
2024-01-18T14:53:17.726Z,17.23
2024-01-18T14:55:45.085Z,27.00
2024-01-18T14:58:12.628Z,40.17
2024-01-18T15:00:40.601Z,40.90
2024-01-18T15:03:08.254Z,44.42
2024-01-18T15:05:35.488Z,35.90
2024-01-18T15:08:06.089Z,35.55
2024-01-18T15:10:34.020Z,36.47
2024-01-18T15:13:01.157Z,29.63
2024-01-18T15:15:28.241Z,28.95
2024-01-18T15:17:56.111Z,29.10
2024-01-18T15:20:23.762Z,23.90
2024-01-18T15:22:50.912Z,33.83
2024-01-18T15:25:19.567Z,28.77
2024-01-18T15:27:47.078Z,27.58
2024-01-18T15:30:14.963Z,27.17
2024-01-18T15:32:42.402Z,25.70
2024-01-18T15:35:12.094Z,23.00
2024-01-18T15:37:39.368Z,23.00
2024-01-18T15:40:08.020Z,21.52
2024-01-18T15:42:35.190Z,34.42
2024-01-18T15:45:02.612Z,32.35
2024-01-18T15:47:29.844Z,28.60
2024-01-18T15:49:56.737Z,31.58
2024-01-18T15:52:23.890Z,28.52
2024-01-18T15:54:50.878Z,29.35
2024-01-18T15:57:18.492Z,27.48
2024-01-18T15:59:45.586Z,27.70
2024-01-18T16:02:12.528Z,28.55
2024-01-18T16:04:39.877Z,26.65
2024-01-18T16:07:07.279Z,26.48
2024-01-18T16:09:34.285Z,29.30
2024-01-18T16:12:01.800Z,28.05
2024-01-18T16:14:28.638Z,28.52
2024-01-18T16:16:55.737Z,25.13
2024-01-18T16:19:23.068Z,20.50
2024-01-18T16:21:50.299Z,24.85
2024-01-18T16:24:20.062Z,23.48
2024-01-18T16:26:47.652Z,24.45
2024-01-18T16:29:15.321Z,29.70
2024-01-18T16:31:44.156Z,25.63
2024-01-18T16:34:11.181Z,24.92
2024-01-18T16:36:38.225Z,29.73
2024-01-18T16:39:08.141Z,22.98
2024-01-18T16:41:34.971Z,26.77
2024-01-18T16:44:02.714Z,26.42
2024-01-18T16:46:31.662Z,36.15
2024-01-18T16:48:59.438Z,31.95
2024-01-18T16:51:26.299Z,30.45
2024-01-18T16:53:53.324Z,34.63
2024-01-18T16:56:20.239Z,32.15
2024-01-18T16:58:47.167Z,29.05
2024-01-18T17:01:14.516Z,30.75
2024-01-18T17:03:41.780Z,27.08
2024-01-18T17:06:08.923Z,23.33
2024-01-18T17:08:35.877Z,26.73
2024-01-18T17:11:02.918Z,31.42
2024-01-18T17:13:30.086Z,32.85
2024-01-18T17:15:57.693Z,34.47
2024-01-18T17:18:24.651Z,33.67
2024-01-18T17:20:51.523Z,38.45
2024-01-18T17:23:18.601Z,50.75
2024-01-18T17:25:45.404Z,47.42
2024-01-18T17:28:12.264Z,53.00
2024-01-18T17:30:39.597Z,67.18
2024-01-18T17:33:06.858Z,56.78
2024-01-18T17:35:36.157Z,48.33
2024-01-18T17:38:04.091Z,45.10
2024-01-18T17:40:30.899Z,45.30
2024-01-18T17:42:57.760Z,45.40
2024-01-18T17:45:27.432Z,41.15
2024-01-18T17:47:54.562Z,33.22
2024-01-18T17:50:22.896Z,35.95
2024-01-18T17:52:50.569Z,32.35
2024-01-18T17:55:18.148Z,40.83
2024-01-18T17:57:45.008Z,71.47
2024-01-18T18:00:12.571Z,60.75
2024-01-18T18:02:40.516Z,37.58
2024-01-18T18:05:11.080Z,51.83
2024-01-18T18:07:38.211Z,41.97
2024-01-18T18:10:06.196Z,43.38
2024-01-18T18:12:33.263Z,39.10
2024-01-18T18:15:00.189Z,42.67
2024-01-18T18:17:27.367Z,45.63
2024-01-18T18:19:54.476Z,39.95
2024-01-18T18:22:23.224Z,36.28
2024-01-18T18:24:52.335Z,35.40
2024-01-18T18:27:19.366Z,34.25
2024-01-18T18:29:46.549Z,36.25
2024-01-18T18:32:13.628Z,36.67
2024-01-18T18:34:40.604Z,32.92
2024-01-18T18:37:07.802Z,31.25
2024-01-18T18:39:35.092Z,31.45
2024-01-18T18:42:02.003Z,28.92
2024-01-18T18:44:29.114Z,33.78
2024-01-18T18:46:56.110Z,36.65
2024-01-18T18:49:23.908Z,34.42
2024-01-18T18:51:50.810Z,38.17
2024-01-18T18:54:18.509Z,34.85
2024-01-18T18:56:45.479Z,38.28
2024-01-18T18:59:12.564Z,35.50
2024-01-18T19:01:39.479Z,38.28
2024-01-18T19:04:07.070Z,39.60
2024-01-18T19:06:33.991Z,34.47
2024-01-18T19:09:02.589Z,37.38
2024-01-18T19:11:29.676Z,36.00
2024-01-18T19:14:00.711Z,37.08
2024-01-18T19:16:28.567Z,41.22
2024-01-18T19:18:56.492Z,38.45
2024-01-18T19:21:23.742Z,45.13
2024-01-18T19:23:50.671Z,50.88
2024-01-18T19:26:17.415Z,51.58
2024-01-18T19:28:44.569Z,48.58
2024-01-18T19:31:11.369Z,50.20
2024-01-18T19:33:41.361Z,51.22
2024-01-18T19:36:09.863Z,48.30
2024-01-18T19:38:36.744Z,50.22
2024-01-18T19:41:05.787Z,55.80
2024-01-18T19:43:32.621Z,54.10
2024-01-18T19:46:00.530Z,45.20
2024-01-18T19:48:28.119Z,48.58
2024-01-18T19:50:55.097Z,43.03
2024-01-18T19:53:21.976Z,45.05
2024-01-18T19:55:49.912Z,46.47
2024-01-18T19:58:17.036Z,47.72
2024-01-18T20:00:43.985Z,47.17
2024-01-18T20:03:10.991Z,51.30
2024-01-18T20:05:38.091Z,48.42
2024-01-18T20:08:05.385Z,48.65
2024-01-18T20:10:32.369Z,56.85
2024-01-18T20:12:59.170Z,63.97
2024-01-18T20:15:26.133Z,52.20
2024-01-18T20:17:53.104Z,49.35
2024-01-18T20:20:20.539Z,52.83
2024-01-18T20:22:48.506Z,51.20
2024-01-18T20:25:16.054Z,50.80
2024-01-18T20:27:44.308Z,53.15
2024-01-18T20:30:11.781Z,54.53
2024-01-18T20:32:38.943Z,51.25
2024-01-18T20:35:06.264Z,50.67
2024-01-18T20:37:33.238Z,43.83
2024-01-18T20:40:00.062Z,45.15
2024-01-18T20:42:26.935Z,49.92
2024-01-18T20:44:53.978Z,48.00
2024-01-18T20:47:22.084Z,75.40
2024-01-18T20:49:49.433Z,59.15
2024-01-18T20:52:16.457Z,50.03
2024-01-18T20:54:43.634Z,41.90
2024-01-18T20:57:12.056Z,53.85
2024-01-18T20:59:39.023Z,53.85
2024-01-18T21:02:06.031Z,54.95
2024-01-18T21:04:36.767Z,50.65
2024-01-18T21:07:05.365Z,44.78
2024-01-18T21:09:32.243Z,39.85
2024-01-18T21:11:59.143Z,84.50
2024-01-18T21:14:26.212Z,45.72
2024-01-18T21:16:53.039Z,47.13
2024-01-18T21:19:19.951Z,54.70
2024-01-18T21:21:47.726Z,51.15
2024-01-18T21:24:14.641Z,66.32
2024-01-18T21:26:41.509Z,65.22
2024-01-18T21:29:08.832Z,58.03
2024-01-18T21:31:36.988Z,51.83
2024-01-18T21:34:07.455Z,53.33
2024-01-18T21:36:37.828Z,51.08
2024-01-18T21:39:06.325Z,47.85
2024-01-18T21:41:33.318Z,47.05
2024-01-18T21:44:05.260Z,43.33
2024-01-18T21:46:32.940Z,45.90
2024-01-18T21:49:00.027Z,43.67
2024-01-18T21:51:27.468Z,45.92
2024-01-18T21:53:54.487Z,45.25
2024-01-18T21:56:25.001Z,43.25
2024-01-18T21:58:52.139Z,46.67
2024-01-18T22:01:19.252Z,38.35
2024-01-18T22:03:46.545Z,40.08
2024-01-18T22:06:15.134Z,41.60
2024-01-18T22:08:42.238Z,41.63
2024-01-18T22:11:09.904Z,43.28
2024-01-18T22:13:38.312Z,44.40
2024-01-18T22:16:06.314Z,49.85
2024-01-18T22:18:36.435Z,46.83
2024-01-18T22:21:03.588Z,48.03
2024-01-18T22:23:30.383Z,44.67
2024-01-18T22:25:57.664Z,45.88
2024-01-18T22:28:24.409Z,41.47
2024-01-18T22:30:51.314Z,45.90
2024-01-18T22:33:18.341Z,45.53
2024-01-18T22:35:45.181Z,46.90
2024-01-18T22:38:13.721Z,43.90
2024-01-18T22:40:40.825Z,42.30
2024-01-18T22:43:07.740Z,39.03
2024-01-18T22:45:34.678Z,43.15
2024-01-18T22:48:07.513Z,41.28
2024-01-18T22:50:37.691Z,38.65
2024-01-18T22:53:04.892Z,42.83
2024-01-18T22:55:33.540Z,41.55
2024-01-18T22:58:00.575Z,45.35
2024-01-18T23:00:28.654Z,43.70
2024-01-18T23:02:55.938Z,41.70
2024-01-18T23:05:22.996Z,39.85
2024-01-18T23:07:50.198Z,40.90
2024-01-18T23:10:17.968Z,42.85
2024-01-18T23:12:45.459Z,43.55
2024-01-18T23:15:15.107Z,42.25
2024-01-18T23:17:42.056Z,41.42
2024-01-18T23:23:38.027Z,40.85
2024-01-18T23:26:06.507Z,42.22
2024-01-18T23:28:33.429Z,42.33
2024-01-18T23:31:00.256Z,40.38
2024-01-18T23:33:27.286Z,38.53
2024-01-18T23:35:59.926Z,41.78
2024-01-18T23:38:26.809Z,42.28
2024-01-18T23:40:53.584Z,38.08
2024-01-18T23:43:20.407Z,35.15
2024-01-18T23:45:47.578Z,32.50
2024-01-18T23:48:14.771Z,36.40
2024-01-18T23:50:43.404Z,38.80
2024-01-18T23:53:10.317Z,38.20
2024-01-18T23:55:37.629Z,35.65
2024-01-18T23:58:04.659Z,34.35
